Time;durP1;ratioP1;P1;durP2;ratioP2;P2;SDS_P1;SDS_P2;PMS_P1;PMS_P2;Temp;Humidity;BMP_temperature;BMP_pressure;BME280_temperature;BME280_humidity;BME280_pressure;Samples;Min_cycle;Max_cycle;Signal;HPM_P1;HPM_P2
2023/03/12 00:01:26;;;;;;;20.38;10.27;;;;;;;3.76;67.47;96776.84;10248133;28;20408;-54
2023/03/12 00:06:25;;;;;;;12.98;6.93;;;;;;;3.59;67.60;96766.41;10256858;28;20068;-54
2023/03/12 00:11:24;;;;;;;16.23;6.50;;;;;;;3.57;67.96;96781.78;10249980;28;20057;-54
2023/03/12 00:16:24;;;;;;;16.38;7.57;;;;;;;3.47;69.41;96773.97;10255482;28;20119;-54
2023/03/12 00:21:23;;;;;;;16.83;7.68;;;;;;;3.32;71.06;96785.75;10249750;28;20049;-54
2023/03/12 00:26:22;;;;;;;13.57;7.97;;;;;;;3.24;70.94;96779.69;10249952;28;20041;-54
2023/03/12 00:31:26;;;;;;;14.43;6.22;;;;;;;3.17;72.33;96786.44;10255792;28;20062;-54
2023/03/12 00:36:28;;;;;;;9.68;5.65;;;;;;;2.91;72.01;96773.31;10258241;28;21583;-54
2023/03/12 00:41:27;;;;;;;12.88;5.47;;;;;;;3.08;71.08;96795.72;10263612;28;20125;-54
2023/03/12 00:46:26;;;;;;;13.70;6.32;;;;;;;2.95;71.10;96769.06;10263051;28;20073;-54
2023/03/12 00:51:25;;;;;;;18.10;9.82;;;;;;;2.91;71.30;96783.56;10257962;28;20038;-55
2023/03/12 00:56:24;;;;;;;14.80;7.75;;;;;;;2.85;71.70;96777.50;10263232;28;20049;-54
2023/03/12 01:01:24;;;;;;;19.50;9.23;;;;;;;2.88;72.84;96793.75;10261977;28;20019;-54
2023/03/12 01:06:22;;;;;;;24.98;8.43;;;;;;;2.82;73.26;96793.69;10260874;28;20120;-54
2023/03/12 01:11:22;;;;;;;14.23;7.93;;;;;;;2.74;73.95;96795.25;10289165;28;20108;-54
2023/03/12 01:16:21;;;;;;;;;;;;;;;2.73;73.83;96808.94;10290307;28;20077;-54
2023/03/12 01:21:20;;;;;;;14.18;7.40;;;;;;;2.40;74.91;96801.59;10290608;28;19917;-54
2023/03/12 01:26:19;;;;;;;12.60;5.95;;;;;;;2.32;74.55;96809.13;10289129;28;20041;-54
2023/03/12 01:31:18;;;;;;;12.85;6.43;;;;;;;2.33;74.15;96808.31;10287126;28;20125;-54
2023/03/12 01:36:27;;;;;;;18.73;7.00;;;;;;;2.21;73.77;96808.97;10284955;28;20058;-54
2023/03/12 01:41:28;;;;;;;16.58;5.13;;;;;;;2.23;73.14;96821.78;10287794;28;20071;-54
2023/03/12 01:46:33;;;;;;;8.45;3.55;;;;;;;2.21;72.67;96813.22;10289562;28;20065;-54
2023/03/12 01:52:03;;;;;;;11.05;3.28;;;;;;;2.20;71.95;96821.75;10289065;28;20144;-54
2023/03/12 01:57:05;;;;;;;11.43;4.95;;;;;;;2.24;71.42;96824.38;10248588;28;20070;-55
2023/03/12 02:02:05;;;;;;;13.90;4.88;;;;;;;2.27;71.06;96834.66;10249293;28;20462;-54
2023/03/12 02:07:06;;;;;;;13.38;6.85;;;;;;;2.16;71.91;96834.50;10288577;28;20463;-54
2023/03/12 02:12:06;;;;;;;13.40;6.55;;;;;;;1.63;72.86;96788.34;10288327;28;20076;-54
2023/03/12 02:17:06;;;;;;;17.58;7.13;;;;;;;1.85;72.57;96822.84;10288704;28;20050;-54
2023/03/12 02:22:07;;;;;;;15.23;7.63;;;;;;;1.99;72.62;96842.72;10288676;28;20531;-54
2023/03/12 02:27:07;;;;;;;21.95;10.15;;;;;;;1.74;72.12;96809.88;10288677;28;20069;-55
2023/03/12 02:32:11;;;;;;;27.67;14.38;;;;;;;1.77;73.31;96856.81;10287867;28;20109;-55
2023/03/12 02:37:10;;;;;;;21.25;11.70;;;;;;;1.86;73.00;96862.09;10273679;28;20057;-55
2023/03/12 02:42:09;;;;;;;21.45;10.10;;;;;;;1.88;72.90;96857.84;10253365;28;20033;-55
2023/03/12 02:47:08;;;;;;;17.05;9.23;;;;;;;1.74;73.42;96830.34;10287351;28;20117;-55
2023/03/12 02:52:08;;;;;;;15.85;7.07;;;;;;;1.84;73.31;96856.94;10287090;28;20529;-55
2023/03/12 02:57:07;;;;;;;17.80;7.65;;;;;;;1.73;73.38;96849.06;10287432;28;20443;-55
2023/03/12 03:02:08;;;;;;;13.77;7.32;;;;;;;1.79;73.37;96865.38;10287319;28;20522;-55
2023/03/12 03:07:07;;;;;;;14.43;6.03;;;;;;;1.74;72.78;96873.81;10285450;28;20509;-55
2023/03/12 03:12:06;;;;;;;16.52;7.15;;;;;;;1.54;72.84;96844.44;10273655;28;20081;-55
2023/03/12 03:17:05;;;;;;;21.63;12.05;;;;;;;1.24;73.83;96825.09;10255797;28;20117;-55
2023/03/12 03:22:04;;;;;;;14.98;8.85;;;;;;;1.39;74.77;96885.91;10256004;28;20113;-55
2023/03/12 03:27:03;;;;;;;15.00;6.80;;;;;;;1.50;74.32;96893.78;10264327;28;20144;-56
2023/03/12 03:32:03;;;;;;;18.88;6.88;;;;;;;1.57;73.14;96902.44;10254504;28;20057;-56
2023/03/12 03:37:02;;;;;;;27.23;6.90;;;;;;;1.57;73.11;96916.09;10256890;28;20474;-55
2023/03/12 03:42:01;;;;;;;12.63;7.38;;;;;;;1.57;73.08;96916.09;10251585;28;20778;-55
2023/03/12 03:47:01;;;;;;;19.80;8.10;;;;;;;1.57;73.12;96928.00;10245037;28;20033;-55
2023/03/12 03:52:00;;;;;;;23.15;11.43;;;;;;;1.48;73.71;96921.88;10244707;28;20117;-55
2023/03/12 03:56:59;;;;;;;17.92;8.25;;;;;;;1.43;74.00;96945.59;10283636;28;20048;-55
2023/03/12 04:01:58;;;;;;;15.68;6.90;;;;;;;1.44;73.30;96944.81;10282929;28;20054;-55
2023/03/12 04:06:57;;;;;;;9.13;5.03;;;;;;;1.43;73.09;96945.59;10281956;28;20042;-54
2023/03/12 04:11:56;;;;;;;;;;;;;;;1.44;73.36;96950.75;10281812;28;20125;-55
2023/03/12 04:16:56;;;;;;;10.45;6.20;;;;;;;1.47;72.96;96965.31;10281117;28;19921;-54
2023/03/12 04:21:55;;;;;;;26.85;15.27;;;;;;;1.28;74.46;96964.91;10282644;28;20022;-54
2023/03/12 04:26:54;;;;;;;29.83;16.67;;;;;;;1.19;74.75;96979.16;10283624;28;20121;-54
2023/03/12 04:31:53;;;;;;;19.40;11.95;;;;;;;1.07;75.33;96977.19;10283040;28;20117;-54
2023/03/12 04:36:52;;;;;;;22.65;13.52;;;;;;;0.71;76.23;96979.69;10271598;28;20058;-54
2023/03/12 04:41:51;;;;;;;23.67;13.80;;;;;;;0.50;77.27;96973.25;10242763;28;20030;-54
2023/03/12 04:46:50;;;;;;;23.98;15.73;;;;;;;0.56;77.51;97013.38;10241797;28;20117;-54
2023/03/12 04:51:49;;;;;;;28.83;17.05;;;;;;;0.57;77.61;97027.84;10243050;28;20062;-54
2023/03/12 04:56:48;;;;;;;31.00;15.95;;;;;;;0.59;77.41;97036.41;10243211;28;20520;-54
2023/03/12 05:01:47;;;;;;;24.02;15.27;;;;;;;0.68;76.40;97014.53;10244089;28;20046;-54
2023/03/12 05:06:46;;;;;;;19.20;11.25;;;;;;;1.04;75.90;97061.44;10247233;28;20133;-54
2023/03/12 05:11:45;;;;;;;18.33;10.38;;;;;;;1.15;75.81;97065.09;10251182;28;20058;-54
2023/03/12 05:16:44;;;;;;;;;;;;;;;1.30;75.29;97078.25;10292021;28;20581;-54
2023/03/12 05:21:43;;;;;;;17.38;9.75;;;;;;;1.36;75.00;97074.13;10290656;28;19917;-54
2023/03/12 05:26:42;;;;;;;15.75;9.27;;;;;;;1.55;74.21;97099.28;10291124;28;20088;-54
2023/03/12 05:31:41;;;;;;;22.38;13.40;;;;;;;1.69;73.34;97108.16;10290795;28;20061;-54
2023/03/12 05:36:41;;;;;;;27.73;18.33;;;;;;;1.87;73.43;97122.19;10279995;28;20157;-54
2023/03/12 05:41:40;;;;;;;20.63;12.15;;;;;;;1.94;72.02;97131.75;10250126;28;20062;-54
2023/03/12 05:46:39;;;;;;;24.13;15.50;;;;;;;2.04;72.36;97133.66;10250155;28;20053;-54
2023/03/12 05:51:38;;;;;;;15.85;10.52;;;;;;;2.15;70.55;97142.44;10249284;28;20117;-55
2023/03/12 05:56:37;;;;;;;19.77;11.25;;;;;;;2.28;70.48;97148.72;10248711;28;20037;-55
2023/03/12 06:01:37;;;;;;;23.35;14.48;;;;;;;2.43;68.52;97155.84;10256726;28;20057;-55
2023/03/12 06:06:36;;;;;;;37.10;20.60;;;;;;;2.44;67.71;97170.41;10286379;28;20061;-55
2023/03/12 06:11:35;;;;;;;33.42;20.23;;;;;;;2.62;68.37;97189.53;10247553;28;20061;-55
2023/03/12 06:16:34;;;;;;;33.38;20.83;;;;;;;2.34;67.63;97117.25;10244524;28;20109;-55
2023/03/12 06:21:34;;;;;;;37.75;24.45;;;;;;;2.87;67.95;97212.28;10246719;28;20041;-55
2023/03/12 06:26:33;;;;;;;18.98;12.85;;;;;;;2.70;67.84;97214.50;10244297;28;20066;-55
2023/03/12 06:31:32;;;;;;;17.13;11.27;;;;;;;2.92;65.01;97223.47;10246680;28;20058;-55
2023/03/12 06:36:31;;;;;;;27.35;16.05;;;;;;;2.89;65.80;97243.94;10286491;28;20045;-54
2023/03/12 06:41:31;;;;;;;21.48;12.82;;;;;;;2.63;62.85;97196.38;10286475;28;20076;-54
2023/03/12 06:46:30;;;;;;;32.20;15.43;;;;;;;2.99;60.75;97238.16;10257212;28;20136;-54
2023/03/12 06:51:29;;;;;;;10.05;5.53;;;;;;;3.03;58.56;97269.84;10248109;28;20077;-54
2023/03/12 06:56:29;;;;;;;11.27;4.65;;;;;;;2.89;55.86;97249.06;10244599;28;20116;-54
2023/03/12 07:01:28;;;;;;;6.55;3.63;;;;;;;3.23;55.21;97271.09;10245985;28;20081;-54
2023/03/12 07:06:27;;;;;;;6.28;3.00;;;;;;;3.30;52.84;97279.78;10244690;28;20039;-55
2023/03/12 07:11:26;;;;;;;7.05;2.90;;;;;;;3.33;52.69;97284.09;10246070;28;20038;-55
2023/03/12 07:16:25;;;;;;;9.20;4.63;;;;;;;3.73;51.95;97290.88;10245822;28;20045;-53
2023/03/12 07:21:24;;;;;;;5.38;3.28;;;;;;;3.95;52.47;97293.81;10254068;28;20041;-55
2023/03/12 07:26:23;;;;;;;8.77;4.10;;;;;;;4.08;50.77;97301.75;10249288;28;20088;-55
2023/03/12 07:31:22;;;;;;;9.63;4.75;;;;;;;4.22;51.08;97307.13;10257221;28;20443;-54
2023/03/12 07:36:21;;;;;;;7.80;3.75;;;;;;;3.96;50.38;97252.75;10244578;28;20134;-56
2023/03/12 07:41:20;;;;;;;5.18;3.13;;;;;;;4.07;48.90;97246.09;10242610;28;20053;-54
2023/03/12 07:46:19;;;;;;;6.93;2.90;;;;;;;4.55;48.85;97323.03;10249852;28;20933;-54
2023/03/12 07:51:18;;;;;;;5.78;4.15;;;;;;;4.80;48.14;97322.59;10242972;28;20034;-54
2023/03/12 07:56:17;;;;;;;5.28;3.25;;;;;;;4.72;47.68;97309.63;10249744;28;20117;-54
2023/03/12 08:01:16;;;;;;;13.23;4.20;;;;;;;4.97;48.07;97317.75;10244778;28;20109;-54
2023/03/12 08:06:15;;;;;;;13.13;6.90;;;;;;;5.24;47.63;97312.09;10252250;28;20145;-55
2023/03/12 08:11:14;;;;;;;7.13;3.67;;;;;;;5.37;47.59;97294.22;10238794;28;20042;-55
2023/03/12 08:16:13;;;;;;;4.72;2.85;;;;;;;5.33;44.33;97319.06;10249895;28;20053;-54
2023/03/12 08:21:13;;;;;;;5.65;3.42;;;;;;;5.57;45.31;97317.63;10244000;28;20062;-55
2023/03/12 08:26:12;;;;;;;8.60;4.15;;;;;;;6.15;45.78;97341.44;10249790;28;20073;-55
2023/03/12 08:31:11;;;;;;;5.57;3.05;;;;;;;6.55;44.71;97328.91;10242215;28;20142;-55
2023/03/12 08:36:10;;;;;;;9.55;5.03;;;;;;;7.05;44.12;97330.94;10249200;28;20037;-55
2023/03/12 08:41:09;;;;;;;5.90;2.97;;;;;;;7.29;39.29;97334.53;10258306;28;20042;-55
2023/03/12 08:46:08;;;;;;;6.88;2.80;;;;;;;7.74;39.43;97327.88;10246862;28;20129;-55
2023/03/12 08:51:07;;;;;;;5.80;2.60;;;;;;;7.82;36.81;97339.94;10248355;28;20053;-55
2023/03/12 08:56:07;;;;;;;3.08;2.33;;;;;;;7.42;35.59;97315.69;10255014;28;20041;-55
2023/03/12 09:01:11;;;;;;;4.18;2.67;;;;;;;7.55;35.94;97338.13;10249151;28;20070;-55
2023/03/12 09:06:15;;;;;;;3.58;2.55;;;;;;;8.04;37.53;97325.38;10255665;28;20121;-55
2023/03/12 09:11:14;;;;;;;6.22;3.20;;;;;;;8.26;36.25;97276.28;10247877;28;20572;-55
2023/03/12 09:16:13;;;;;;;4.03;2.70;;;;;;;7.88;34.90;97306.38;10254844;28;20416;-55
2023/03/12 09:21:12;;;;;;;3.13;2.38;;;;;;;8.01;35.73;97327.97;10244735;28;20046;-55
2023/03/12 09:26:12;;;;;;;4.13;2.60;;;;;;;8.15;34.98;97340.03;10254187;28;20194;-55
2023/03/12 09:31:11;;;;;;;2.95;2.20;;;;;;;7.98;34.32;97333.09;10248111;28;20133;-55
2023/03/12 09:36:10;;;;;;;4.63;2.78;;;;;;;7.33;36.32;97307.88;10252936;28;20133;-56
2023/03/12 09:41:31;;;;;;;4.15;2.78;;;;;;;7.17;36.10;97346.53;10260806;28;20061;-55
2023/03/12 09:46:37;;;;;;;4.28;2.58;;;;;;;7.12;35.04;97332.72;10253210;28;20070;-55
2023/03/12 09:51:44;;;;;;;4.50;2.58;;;;;;;6.90;36.28;97290.47;10246128;28;20522;-55
2023/03/12 09:56:43;;;;;;;26.52;17.10;;;;;;;7.63;36.82;97335.59;10246475;28;20084;-55
2023/03/12 10:01:54;;;;;;;4.75;2.65;;;;;;;7.43;35.10;97332.94;10252087;28;20115;-55
2023/03/12 10:07:08;;;;;;;3.55;2.10;;;;;;;7.28;33.83;97345.72;10256702;28;20149;-55
2023/03/12 10:12:19;;;;;;;3.80;2.35;;;;;;;7.49;34.44;97332.94;10253462;28;20382;-55
2023/03/12 10:17:57;;;;;;;3.20;2.22;;;;;;;7.82;33.32;97346.84;10252932;28;20121;-56
2023/03/12 10:23:11;;;;;;;33.63;18.15;;;;;;;8.27;35.48;97340.03;10237577;28;20129;-55
2023/03/12 10:28:30;;;;;;;2.58;1.90;;;;;;;8.42;33.04;97334.91;10243829;28;20129;-55
2023/03/12 10:33:43;;;;;;;3.38;2.28;;;;;;;7.83;33.31;97338.25;10245426;28;20170;-55
2023/03/12 10:38:42;;;;;;;6.68;3.72;;;;;;;7.17;33.80;97248.47;10250883;28;20080;-56
2023/03/12 10:43:41;;;;;;;5.93;2.92;;;;;;;7.74;33.47;97349.41;10244138;28;20053;-55
2023/03/12 10:48:42;;;;;;;3.60;2.45;;;;;;;7.82;34.20;97352.00;10251136;28;20137;-55
2023/03/12 10:53:43;;;;;;;6.43;3.92;;;;;;;7.95;34.12;97358.94;10244071;28;20141;-56
2023/03/12 10:58:45;;;;;;;3.95;2.90;;;;;;;7.83;33.53;97348.59;10250641;28;20077;-56
2023/03/12 11:03:45;;;;;;;4.72;3.15;;;;;;;7.70;34.30;97336.47;10253861;28;20595;-56
2023/03/12 11:09:03;;;;;;;4.22;2.72;;;;;;;7.99;33.82;97332.25;10249689;28;20069;-56
2023/03/12 11:14:25;;;;;;;4.45;3.25;;;;;;;7.98;34.19;97338.28;10258175;28;20077;-56
2023/03/12 11:19:32;;;;;;;7.82;4.38;;;;;;;8.15;34.43;97319.34;10245723;28;20069;-56
2023/03/12 11:24:31;;;;;;;4.75;2.90;;;;;;;6.66;33.78;97200.06;10248456;28;20525;-56
2023/03/12 11:29:34;;;;;;;8.82;3.67;;;;;;;7.29;34.36;97326.78;10254595;28;20447;-55
2023/03/12 11:34:35;;;;;;;4.10;2.72;;;;;;;7.37;33.82;97317.38;10244816;28;20065;-55
2023/03/12 11:40:08;;;;;;;24.88;14.55;;;;;;;7.58;35.10;97311.47;10245190;28;20121;-56
2023/03/12 11:45:59;;;;;;;6.47;3.28;;;;;;;7.45;33.25;97300.22;10255910;28;20117;-56
2023/03/12 11:51:17;;;;;;;6.93;3.50;;;;;;;7.92;33.75;97290.88;10249357;28;20584;-56
2023/03/12 11:56:35;;;;;;;2.63;2.03;;;;;;;8.22;33.86;97293.50;10249643;28;20552;-56
2023/03/12 12:01:38;;;;;;;4.10;2.60;;;;;;;8.45;33.24;97285.78;10243595;28;20551;-56
2023/03/12 12:06:56;;;;;;;2.42;2.05;;;;;;;8.41;33.66;97278.91;10249348;28;20068;-56
2023/03/12 12:12:01;;;;;;;3.78;2.88;;;;;;;8.35;34.30;97302.16;10241554;28;20207;-55
2023/03/12 12:17:19;;;;;;;6.90;3.50;;;;;;;8.02;33.85;97298.66;10247793;28;20121;-56
2023/03/12 12:22:24;;;;;;;2.83;2.40;;;;;;;8.20;32.95;97307.28;10241193;28;20125;-56
2023/03/12 12:27:26;;;;;;;4.50;2.90;;;;;;;8.31;32.84;97253.88;10255336;28;20053;-56
2023/03/12 12:32:39;;;;;;;4.40;2.40;;;;;;;8.82;33.24;97293.50;10253156;28;20068;-56
2023/03/12 12:37:52;;;;;;;3.17;2.20;;;;;;;8.14;32.98;97291.81;10244618;28;20478;-56
2023/03/12 12:43:14;;;;;;;4.78;3.05;;;;;;;8.03;34.68;97299.53;10244264;28;20121;-56
2023/03/12 12:48:19;;;;;;;4.45;3.08;;;;;;;7.59;33.47;97234.03;10245819;28;20564;-56
2023/03/12 12:53:32;;;;;;;4.63;2.50;;;;;;;8.26;34.54;97312.47;10244598;28;20491;-56
2023/03/12 12:58:58;;;;;;;4.07;3.10;;;;;;;8.20;34.96;97321.09;10248632;28;20125;-56
2023/03/12 13:04:34;;;;;;;5.25;3.30;;;;;;;8.03;34.24;97321.06;10241727;28;20093;-57
2023/03/12 13:09:35;;;;;;;4.22;3.15;;;;;;;8.02;34.56;97319.34;10237133;28;20146;-56
2023/03/12 13:14:38;;;;;;;6.85;3.88;;;;;;;8.17;35.31;97326.25;10238099;28;20852;-56
2023/03/12 13:19:40;;;;;;;4.13;2.97;;;;;;;8.16;33.66;97329.72;10246844;28;20069;-55
2023/03/12 13:24:50;;;;;;;5.13;3.30;;;;;;;8.25;34.89;97331.44;10255532;28;20109;-56
2023/03/12 13:29:55;;;;;;;6.22;3.92;;;;;;;8.02;34.30;97275.41;10253054;28;20070;-56
2023/03/12 13:34:57;;;;;;;3.92;2.88;;;;;;;8.36;34.04;97340.06;10248807;28;20069;-56
2023/03/12 13:40:00;;;;;;;4.68;2.97;;;;;;;7.89;34.61;97338.25;10253266;28;20564;-56
2023/03/12 13:45:21;;;;;;;6.88;3.50;;;;;;;7.67;34.59;97342.50;10248247;28;20113;-58
2023/03/12 13:50:20;;;;;;;6.20;4.15;;;;;;;7.66;34.92;97326.13;10249774;28;20129;-55
2023/03/12 13:55:36;;;;;;;4.63;2.72;;;;;;;7.85;34.37;97352.88;10250043;28;20117;-55
2023/03/12 14:00:40;;;;;;;4.43;2.95;;;;;;;8.19;34.35;97358.13;10246584;28;20069;-55
2023/03/12 14:06:10;;;;;;;3.22;2.47;;;;;;;7.70;32.75;97277.94;10243679;28;20129;-56
2023/03/12 14:11:25;;;;;;;4.90;3.28;;;;;;;7.94;35.44;97370.13;10241739;28;20117;-56
2023/03/12 14:16:38;;;;;;;6.43;3.60;;;;;;;7.76;34.59;97381.28;10255126;28;20137;-55
2023/03/12 14:21:40;;;;;;;13.30;6.82;;;;;;;7.65;36.17;97386.38;10254286;28;20110;-55
2023/03/12 14:26:39;;;;;;;8.18;5.25;;;;;;;7.61;35.63;97394.97;10251821;28;20069;-56
2023/03/12 14:31:38;;;;;;;;;;;;;;;7.75;35.28;97381.25;10245119;28;20133;-55
2023/03/12 14:37:06;;;;;;;6.57;4.37;;;;;;;7.47;35.99;97401.78;10251796;28;20025;-55
2023/03/12 14:42:06;;;;;;;4.82;3.63;;;;;;;7.46;36.24;97394.91;10248395;28;20561;-56
2023/03/12 14:47:11;;;;;;;7.90;4.82;;;;;;;7.55;36.79;97407.84;10251369;28;20058;-55
2023/03/12 14:52:19;;;;;;;9.05;4.25;;;;;;;7.72;34.83;97402.75;10251443;28;20547;-55
2023/03/12 14:57:22;;;;;;;5.40;3.58;;;;;;;7.99;35.22;97409.78;10247842;28;21075;-56
2023/03/12 15:02:21;;;;;;;4.45;3.10;;;;;;;7.61;34.23;97369.13;10248799;28;20061;-56
2023/03/12 15:07:34;;;;;;;6.40;3.83;;;;;;;7.45;35.25;97373.38;10241152;28;20544;-55
2023/03/12 15:12:36;;;;;;;5.53;4.00;;;;;;;7.66;35.30;97420.81;10258821;28;20509;-56
2023/03/12 15:17:35;;;;;;;7.28;4.20;;;;;;;7.57;35.28;97431.09;10244714;28;20133;-55
2023/03/12 15:22:35;;;;;;;5.25;3.15;;;;;;;7.49;36.25;97436.22;10248632;28;20153;-55
2023/03/12 15:27:34;;;;;;;6.85;4.40;;;;;;;7.16;36.47;97424.78;10242650;28;20116;-56
2023/03/12 15:32:33;;;;;;;11.02;5.60;;;;;;;7.14;36.56;97452.28;10252474;28;20060;-55
2023/03/12 15:37:37;;;;;;;6.97;4.03;;;;;;;6.99;38.36;97465.94;10246706;28;20038;-56
2023/03/12 15:42:45;;;;;;;9.32;6.00;;;;;;;7.14;38.80;97469.50;10247517;28;20121;-56
2023/03/12 15:47:44;;;;;;;10.05;5.20;;;;;;;6.87;37.81;97481.31;10245226;28;20081;-56
2023/03/12 15:53:24;;;;;;;8.82;5.30;;;;;;;6.72;38.05;97465.69;10260897;28;20133;-55
2023/03/12 15:58:35;;;;;;;14.33;8.17;;;;;;;6.63;38.95;97502.53;10238914;28;20523;-55
2023/03/12 16:03:34;;;;;;;10.15;6.07;;;;;;;6.60;39.61;97493.06;10243223;28;20109;-55
2023/03/12 16:08:47;;;;;;;7.78;5.45;;;;;;;6.57;39.03;97518.81;10240369;28;20133;-55
2023/03/12 16:13:48;;;;;;;7.82;5.28;;;;;;;6.29;39.13;97522.78;10251748;28;20125;-55
2023/03/12 16:18:47;;;;;;;12.27;6.80;;;;;;;6.39;39.23;97540.09;10240667;28;20113;-56
2023/03/12 16:23:46;;;;;;;9.38;5.43;;;;;;;6.30;39.25;97550.28;10247242;28;20113;-53
2023/03/12 16:28:45;;;;;;;12.10;6.00;;;;;;;6.38;39.61;97565.88;10240359;28;20125;-55
2023/03/12 16:33:44;;;;;;;7.00;4.50;;;;;;;6.23;38.67;97576.81;10254536;28;20121;-55
2023/03/12 16:38:44;;;;;;;9.48;5.32;;;;;;;5.77;39.42;97522.13;10246510;28;20041;-54
2023/03/12 16:43:47;;;;;;;9.40;6.15;;;;;;;6.11;39.81;97585.25;10236326;28;20463;-54
2023/03/12 16:48:52;;;;;;;11.13;6.90;;;;;;;6.32;39.29;97602.72;10246068;28;20125;-54
2023/03/12 16:53:51;;;;;;;11.88;8.23;;;;;;;6.48;38.87;97610.66;10179853;28;20125;-56
2023/03/12 16:58:51;;;;;;;10.65;6.50;;;;;;;6.40;38.76;97624.31;10212666;28;20430;-56
2023/03/12 17:03:52;;;;;;;7.88;5.32;;;;;;;6.28;39.13;97628.41;10218812;28;20117;-55
2023/03/12 17:08:53;;;;;;;8.90;5.72;;;;;;;6.46;38.87;97644.13;10217045;28;20130;-55
2023/03/12 17:13:55;;;;;;;11.55;8.30;;;;;;;6.54;39.21;97652.00;10220174;28;20133;-55
2023/03/12 17:18:55;;;;;;;10.05;6.55;;;;;;;6.53;39.01;97660.56;10214576;28;20117;-55
2023/03/12 17:23:54;;;;;;;17.25;12.27;;;;;;;6.65;38.59;97672.75;10205247;28;20054;-55
2023/03/12 17:28:52;;;;;;;20.63;12.95;;;;;;;6.34;39.73;97680.06;10213756;28;20089;-54
2023/03/12 17:33:51;;;;;;;28.52;17.52;;;;;;;6.21;39.63;97684.19;10206201;28;20535;-55
2023/03/12 17:38:50;;;;;;;19.02;9.57;;;;;;;6.08;39.71;97703.72;10212190;28;20420;-55
2023/03/12 17:43:49;;;;;;;15.52;11.13;;;;;;;6.19;39.39;97703.91;10210216;28;20027;-55
2023/03/12 17:48:48;;;;;;;16.20;11.98;;;;;;;6.15;39.63;97715.84;10204600;28;20133;-55
2023/03/12 17:53:48;;;;;;;23.35;18.15;;;;;;;6.15;40.15;97715.00;10203315;28;20054;-55
2023/03/12 17:58:47;;;;;;;33.33;22.27;;;;;;;5.99;40.58;97721.59;10210085;28;20518;-56
2023/03/12 18:03:47;;;;;;;25.45;17.40;;;;;;;5.80;40.57;97698.97;10216543;28;20035;-54
2023/03/12 18:08:45;;;;;;;17.15;11.60;;;;;;;5.90;40.34;97724.88;10202942;28;20557;-54
2023/03/12 18:13:47;;;;;;;15.15;10.70;;;;;;;5.64;40.16;97685.81;10202545;28;20560;-54
2023/03/12 18:18:46;;;;;;;24.75;17.65;;;;;;;5.88;40.82;97731.75;10206611;28;20073;-55
2023/03/12 18:23:45;;;;;;;15.77;11.57;;;;;;;5.83;40.74;97738.50;10202691;28;20022;-55
2023/03/12 18:28:44;;;;;;;20.73;14.68;;;;;;;5.73;41.09;97729.75;10203158;28;20039;-55
2023/03/12 18:33:43;;;;;;;31.65;20.75;;;;;;;5.59;41.04;97718.34;10204459;28;20031;-55
2023/03/12 18:38:42;;;;;;;25.10;16.58;;;;;;;5.74;40.91;97743.47;10219584;28;20034;-55
2023/03/12 18:43:41;;;;;;;20.60;13.82;;;;;;;5.26;41.82;97740.03;10208338;28;20030;-53
2023/03/12 18:48:40;;;;;;;18.65;13.80;;;;;;;5.32;41.71;97771.03;10209500;28;20066;-54
2023/03/12 18:53:39;;;;;;;14.25;8.88;;;;;;;5.19;42.59;97774.19;10201718;28;20029;-53
2023/03/12 18:58:38;;;;;;;9.18;6.47;;;;;;;5.02;43.01;97779.00;10208616;28;20133;-56
2023/03/12 19:03:37;;;;;;;63.33;31.80;;;;;;;5.00;43.82;97790.94;10200803;28;20034;-55
2023/03/12 19:08:37;;;;;;;15.52;10.70;;;;;;;4.94;44.57;97801.09;10207550;28;20035;-55
2023/03/12 19:13:36;;;;;;;15.32;10.68;;;;;;;4.86;44.92;97810.31;10200655;28;20548;-55
2023/03/12 19:18:37;;;;;;;12.70;7.90;;;;;;;4.57;46.97;97810.53;10207257;28;20112;-55
2023/03/12 19:23:36;;;;;;;28.25;18.33;;;;;;;4.45;47.66;97820.47;10199267;28;20475;-57
2023/03/12 19:28:36;;;;;;;29.73;18.52;;;;;;;4.25;47.92;97805.47;10206726;28;20500;-54
2023/03/12 19:33:35;;;;;;;35.40;18.10;;;;;;;4.16;48.58;97836.06;10198298;28;20130;-55
2023/03/12 19:38:34;;;;;;;;;;;;;;;3.99;49.72;97845.03;10207711;28;20069;-55
2023/03/12 19:43:33;;;;;;;368.20;133.93;;;;;;;3.83;50.73;97854.03;10200607;28;19914;-54
2023/03/12 19:48:32;;;;;;;47.10;23.88;;;;;;;3.67;50.51;97855.28;10207514;28;20172;-56
2023/03/12 19:53:31;;;;;;;18.05;9.90;;;;;;;3.46;50.99;97855.56;10203437;28;20122;-54
2023/03/12 19:58:30;;;;;;;87.90;38.10;;;;;;;3.45;51.20;97866.66;10207351;28;20034;-54
2023/03/12 20:03:31;;;;;;;61.40;28.20;;;;;;;3.12;51.59;97858.81;10201632;28;20042;-54
2023/03/12 20:08:30;;;;;;;309.27;122.93;;;;;;;3.07;52.56;97888.59;10206910;28;20073;-54
2023/03/12 20:13:29;;;;;;;414.35;193.70;;;;;;;2.73;52.60;97838.84;10198597;28;20097;-54
2023/03/12 20:18:28;;;;;;;167.60;80.25;;;;;;;3.03;52.89;97897.88;10206885;28;20572;-54
2023/03/12 20:23:27;;;;;;;125.47;56.50;;;;;;;2.97;52.76;97901.09;10197803;28;20580;-54
2023/03/12 20:28:26;;;;;;;97.78;52.58;;;;;;;2.92;53.00;97905.22;10202634;28;20541;-54
2023/03/12 20:33:25;;;;;;;150.43;78.90;;;;;;;2.80;53.32;97915.09;10196644;28;20118;-54
2023/03/12 20:38:24;;;;;;;79.40;41.53;;;;;;;2.67;53.38;97912.94;10212693;28;20034;-54
2023/03/12 20:43:23;;;;;;;24.80;13.68;;;;;;;2.42;55.10;97916.38;10207639;28;20122;-55
2023/03/12 20:48:22;;;;;;;62.92;36.33;;;;;;;2.21;55.67;97888.38;10211732;28;20045;-56
2023/03/12 20:53:21;;;;;;;504.30;149.82;;;;;;;2.20;55.65;97927.59;10207964;28;20037;-55
2023/03/12 20:58:22;;;;;;;380.25;114.35;;;;;;;2.24;55.91;97924.34;10215379;28;20116;-55
2023/03/12 21:03:23;;;;;;;64.45;29.65;;;;;;;2.01;56.58;97924.41;10212197;28;20153;-55
2023/03/12 21:08:23;;;;;;;321.10;125.75;;;;;;;1.93;56.32;97938.63;10206348;28;20203;-55
2023/03/12 21:13:23;;;;;;;148.35;59.97;;;;;;;1.89;56.38;97950.41;10223389;28;20181;-54
2023/03/12 21:18:23;;;;;;;133.60;53.53;;;;;;;1.92;56.38;97952.22;10213959;28;20600;-54
2023/03/12 21:23:22;;;;;;;48.10;24.73;;;;;;;1.87;56.66;97948.63;10206073;28;20069;-54
2023/03/12 21:28:21;;;;;;;236.35;89.32;;;;;;;1.81;56.58;97945.84;10205662;28;20039;-54
2023/03/12 21:33:21;;;;;;;123.68;53.70;;;;;;;1.81;56.60;97958.63;10215470;28;20038;-54
2023/03/12 21:38:20;;;;;;;149.40;59.95;;;;;;;1.71;56.73;97948.06;10217877;28;20053;-54
2023/03/12 21:43:19;;;;;;;72.65;32.90;;;;;;;1.77;56.77;97956.78;10204454;28;20023;-54
2023/03/12 21:48:18;;;;;;;44.40;24.27;;;;;;;1.75;57.38;97960.16;10220646;28;20042;-54
2023/03/12 21:53:17;;;;;;;46.63;26.48;;;;;;;1.67;57.36;97961.56;10211818;28;20149;-54
2023/03/12 21:58:16;;;;;;;35.35;21.98;;;;;;;1.64;57.61;97966.53;10219911;28;20030;-54
2023/03/12 22:03:15;;;;;;;40.95;24.35;;;;;;;1.64;57.82;97965.69;10211219;28;20029;-54
2023/03/12 22:08:14;;;;;;;33.75;19.85;;;;;;;1.59;57.97;97962.94;10219854;28;20157;-54
2023/03/12 22:13:13;;;;;;;33.75;20.02;;;;;;;1.42;58.92;97974.25;10211444;28;20130;-54
2023/03/12 22:18:11;;;;;;;35.00;22.02;;;;;;;1.22;60.72;97971.75;10220528;28;20125;-54
2023/03/12 22:23:10;;;;;;;33.83;21.23;;;;;;;1.09;60.73;97982.34;10203275;28;20026;-54
2023/03/12 22:28:09;;;;;;;34.92;21.67;;;;;;;1.10;60.52;97981.50;10218142;28;20038;-54
2023/03/12 22:33:09;;;;;;;43.78;29.95;;;;;;;1.09;60.90;97975.53;10202789;28;20023;-54
2023/03/12 22:38:08;;;;;;;220.20;78.90;;;;;;;1.07;61.09;97981.41;10225553;28;20474;-54
2023/03/12 22:43:07;;;;;;;259.08;95.60;;;;;;;1.09;61.06;97984.91;10216841;28;20556;-53
2023/03/12 22:48:06;;;;;;;243.35;99.32;;;;;;;1.08;61.60;97988.25;10221125;28;20511;-54
2023/03/12 22:53:05;;;;;;;;;;;;;;;1.02;62.05;97996.56;10231586;28;20122;-54
2023/03/12 22:58:04;;;;;;;36.55;20.45;;;;;;;0.96;62.44;98001.41;10213645;28;19956;-53
2023/03/12 23:03:03;;;;;;;128.70;58.35;;;;;;;0.95;62.74;97998.81;10214723;28;20121;-54
2023/03/12 23:08:02;;;;;;;248.43;140.35;;;;;;;0.72;63.45;97982.53;10214797;28;20045;-54
2023/03/12 23:13:01;;;;;;;72.70;43.63;;;;;;;0.81;63.81;98004.22;10210941;28;20162;-54
2023/03/12 23:18:00;;;;;;;58.25;37.22;;;;;;;0.73;63.84;98007.25;10214462;28;20038;-54
2023/03/12 23:22:59;;;;;;;30.67;19.63;;;;;;;0.65;64.11;98007.81;10208286;28;20874;-54
2023/03/12 23:27:58;;;;;;;46.75;28.40;;;;;;;0.47;65.18;98018.13;10217049;28;20034;-54